createdAt,value
2022-12-15T00:00:36.554Z,-3.4
2022-12-15T00:01:39.646Z,-3.4
2022-12-15T00:02:43.755Z,-3.4
2022-12-15T00:03:47.382Z,-3.4
2022-12-15T00:04:50.476Z,-3.4
2022-12-15T00:05:53.797Z,-3.5
2022-12-15T00:06:56.849Z,-3.5
2022-12-15T00:08:00.169Z,-3.5
2022-12-15T00:09:03.261Z,-3.5
2022-12-15T00:10:06.427Z,-3.5
2022-12-15T00:11:09.507Z,-3.5
2022-12-15T00:12:13.097Z,-3.5
2022-12-15T00:13:15.858Z,-3.5
2022-12-15T00:14:19.257Z,-3.5
2022-12-15T00:15:21.889Z,-3.5
2022-12-15T00:16:24.866Z,-3.6
2022-12-15T00:17:28.658Z,-3.6
2022-12-15T00:18:30.952Z,-3.6
2022-12-15T00:19:33.925Z,-3.6
2022-12-15T00:20:36.979Z,-3.6
2022-12-15T00:21:39.828Z,-3.6
2022-12-15T00:22:42.591Z,-3.6
2022-12-15T00:23:45.654Z,-3.6
2022-12-15T00:24:50.867Z,-3.6
2022-12-15T00:25:53.776Z,-3.6
2022-12-15T00:26:56.607Z,-3.6
2022-12-15T00:27:59.628Z,-3.6
2022-12-15T00:29:03.288Z,-3.6
2022-12-15T00:30:06.010Z,-3.6
2022-12-15T00:31:09.234Z,-3.6
2022-12-15T00:32:12.561Z,-3.6
2022-12-15T00:33:15.611Z,-3.6
2022-12-15T00:34:18.488Z,-3.6
2022-12-15T00:35:20.630Z,-3.6
2022-12-15T00:36:23.336Z,-3.6
2022-12-15T00:37:25.918Z,-3.6
2022-12-15T00:38:28.902Z,-3.6
2022-12-15T00:39:31.959Z,-3.6
2022-12-15T00:40:35.409Z,-3.6
2022-12-15T00:41:38.789Z,-3.6
2022-12-15T00:42:42.270Z,-3.7
2022-12-15T00:43:45.609Z,-3.7
2022-12-15T00:44:48.833Z,-3.7
2022-12-15T00:45:51.888Z,-3.7
2022-12-15T00:46:54.644Z,-3.7
2022-12-15T00:47:57.865Z,-3.7
2022-12-15T00:49:01.579Z,-3.7
2022-12-15T00:50:05.087Z,-3.7
2022-12-15T00:51:07.670Z,-3.7
2022-12-15T00:52:10.756Z,-3.7
2022-12-15T00:53:13.810Z,-3.7
2022-12-15T00:54:18.932Z,-3.7
2022-12-15T00:55:22.146Z,-3.8
2022-12-15T00:56:25.621Z,-3.8
2022-12-15T00:57:28.818Z,-3.7
2022-12-15T00:58:32.141Z,-3.7
2022-12-15T00:59:34.931Z,-3.7
2022-12-15T01:00:37.990Z,-3.7
2022-12-15T01:01:41.311Z,-3.7
2022-12-15T01:02:44.942Z,-3.7
2022-12-15T01:03:49.008Z,-3.7
2022-12-15T01:04:52.350Z,-3.7
2022-12-15T01:05:54.845Z,-3.8
2022-12-15T01:06:57.965Z,-3.8
2022-12-15T01:08:00.801Z,-3.8
2022-12-15T01:09:03.557Z,-3.8
2022-12-15T01:10:07.050Z,-3.8
2022-12-15T01:11:10.111Z,-3.8
2022-12-15T01:12:13.038Z,-3.8
2022-12-15T01:13:16.272Z,-3.8
2022-12-15T01:14:19.842Z,-3.8
2022-12-15T01:15:22.640Z,-3.8
2022-12-15T01:16:25.792Z,-3.6
2022-12-15T01:17:28.932Z,-3.8
2022-12-15T01:18:32.609Z,-3.8
2022-12-15T01:19:35.387Z,-3.8
2022-12-15T01:20:38.725Z,-3.8
2022-12-15T01:21:40.868Z,-3.8
2022-12-15T01:22:43.844Z,-3.8
2022-12-15T01:23:46.821Z,-3.8
2022-12-15T01:24:49.870Z,-3.8
2022-12-15T01:25:53.120Z,-3.8
2022-12-15T01:26:55.913Z,-3.8
2022-12-15T01:27:59.302Z,-3.8
2022-12-15T01:29:02.818Z,-3.8
2022-12-15T01:30:05.871Z,-3.8
2022-12-15T01:31:09.080Z,-3.8
2022-12-15T01:32:11.927Z,-3.7
2022-12-15T01:33:14.711Z,-3.8
2022-12-15T01:34:17.290Z,-3.8
2022-12-15T01:35:20.887Z,-3.8
2022-12-15T01:36:23.931Z,-3.8
2022-12-15T01:37:26.075Z,-3.8
2022-12-15T01:38:28.895Z,-3.8
2022-12-15T01:39:31.932Z,-3.8
2022-12-15T01:40:34.636Z,-3.8
2022-12-15T01:41:36.771Z,-3.8
2022-12-15T01:42:39.822Z,-3.8
2022-12-15T01:43:42.490Z,-3.8
2022-12-15T01:44:46.254Z,-3.8
2022-12-15T01:45:49.633Z,-3.8
2022-12-15T01:46:52.504Z,-3.9
2022-12-15T01:47:55.955Z,-3.9
2022-12-15T01:48:59.115Z,-3.9
2022-12-15T01:50:01.973Z,-3.9
2022-12-15T01:51:04.845Z,-3.9
2022-12-15T01:52:07.345Z,-3.9
2022-12-15T01:53:10.160Z,-3.9
2022-12-15T01:54:13.431Z,-3.9
2022-12-15T01:55:15.655Z,-3.9
2022-12-15T01:56:18.637Z,-3.9
2022-12-15T01:57:21.424Z,-3.9
2022-12-15T01:58:24.660Z,-3.9
2022-12-15T01:59:27.802Z,-3.9
2022-12-15T02:00:30.817Z,-3.9
2022-12-15T02:01:35.128Z,-4
2022-12-15T02:02:41.557Z,-3.9
2022-12-15T02:03:45.244Z,-3.9
2022-12-15T02:04:48.945Z,-4
2022-12-15T02:05:51.712Z,-3.9
2022-12-15T02:06:54.809Z,-4
2022-12-15T02:07:57.853Z,-4
2022-12-15T02:09:00.977Z,-4
2022-12-15T02:10:03.036Z,-4
2022-12-15T02:11:05.812Z,-4
2022-12-15T02:12:09.140Z,-4
2022-12-15T02:13:11.432Z,-4
2022-12-15T02:14:14.291Z,-4
2022-12-15T02:15:17.979Z,-4
2022-12-15T02:16:21.317Z,-4
2022-12-15T02:17:25.415Z,-4
2022-12-15T02:18:28.302Z,-4.1
2022-12-15T02:19:31.068Z,-4.1
2022-12-15T02:20:33.565Z,-4
2022-12-15T02:21:36.084Z,-4
2022-12-15T02:22:39.212Z,-4
2022-12-15T02:23:42.476Z,-4
2022-12-15T02:24:50.595Z,-4
2022-12-15T02:25:53.395Z,-4
2022-12-15T02:26:56.507Z,-4
2022-12-15T02:27:59.727Z,-4
2022-12-15T02:29:02.871Z,-4.1
2022-12-15T02:30:06.492Z,-4
2022-12-15T02:31:10.135Z,-4.1
2022-12-15T02:32:13.824Z,-4
2022-12-15T02:33:17.269Z,-4
2022-12-15T02:34:19.982Z,-4.1
2022-12-15T02:35:23.352Z,-4
2022-12-15T02:36:26.196Z,-4
2022-12-15T02:37:29.168Z,-4
2022-12-15T02:38:31.596Z,-4
2022-12-15T02:39:34.678Z,-4
2022-12-15T02:40:37.925Z,-4
2022-12-15T02:41:40.694Z,-4
2022-12-15T02:42:43.110Z,-4
2022-12-15T02:43:50.340Z,-4
2022-12-15T02:44:53.470Z,-4
2022-12-15T02:45:56.839Z,-4
2022-12-15T02:47:00.643Z,-4
2022-12-15T02:48:03.868Z,-4
2022-12-15T02:49:07.974Z,-3.9
2022-12-15T02:50:11.119Z,-3.9
2022-12-15T02:51:14.168Z,-3.9
2022-12-15T02:52:17.206Z,-3.9
2022-12-15T02:53:19.621Z,-3.9
2022-12-15T02:54:22.992Z,-3.9
2022-12-15T02:55:26.042Z,-3.9
2022-12-15T02:56:29.093Z,-3.9
2022-12-15T02:57:31.946Z,-3.9
2022-12-15T02:58:34.473Z,-3.9
2022-12-15T02:59:37.329Z,-3.9
2022-12-15T03:00:40.680Z,-3.9
2022-12-15T03:01:45.466Z,-3.9
2022-12-15T03:02:53.398Z,-3.9
2022-12-15T03:03:57.881Z,-3.9
2022-12-15T03:05:01.485Z,-3.9
2022-12-15T03:06:04.920Z,-3.9
2022-12-15T03:07:07.970Z,-3.9
2022-12-15T03:08:10.385Z,-3.9
2022-12-15T03:09:13.078Z,-3.9
2022-12-15T03:10:15.849Z,-3.9
2022-12-15T03:11:18.831Z,-3.9
2022-12-15T03:12:21.889Z,-3.9
2022-12-15T03:13:25.036Z,-3.9
2022-12-15T03:14:28.191Z,-3.9
2022-12-15T03:15:36.468Z,-3.9
2022-12-15T03:16:39.105Z,-3.9
2022-12-15T03:17:42.381Z,-3.9
2022-12-15T03:18:45.219Z,-3.9
2022-12-15T03:19:50.490Z,-3.9
2022-12-15T03:20:54.311Z,-3.9
2022-12-15T03:21:57.365Z,-3.9
2022-12-15T03:23:00.223Z,-3.9
2022-12-15T03:24:03.218Z,-3.9
2022-12-15T03:25:06.349Z,-3.9
2022-12-15T03:26:09.400Z,-3.9
2022-12-15T03:27:12.212Z,-3.9
2022-12-15T03:28:14.357Z,-3.9
2022-12-15T03:29:17.688Z,-3.9
2022-12-15T03:30:20.447Z,-3.9
2022-12-15T03:31:24.151Z,-3.9
2022-12-15T03:32:27.685Z,-3.9
2022-12-15T03:33:31.655Z,-3.9
2022-12-15T03:34:37.054Z,-3.9
2022-12-15T03:35:40.261Z,-3.9
2022-12-15T03:36:43.360Z,-3.9
2022-12-15T03:37:50.617Z,-3.9
2022-12-15T03:38:53.599Z,-3.9
2022-12-15T03:39:56.578Z,-3.9
2022-12-15T03:40:59.937Z,-3.9
2022-12-15T03:42:02.660Z,-3.9
2022-12-15T03:43:05.089Z,-3.9
2022-12-15T03:44:07.846Z,-3.9
2022-12-15T03:45:10.812Z,-3.9
2022-12-15T03:46:14.162Z,-4
2022-12-15T03:47:17.253Z,-4
2022-12-15T03:48:20.036Z,-4
2022-12-15T03:49:22.469Z,-4
2022-12-15T03:50:25.383Z,-4
2022-12-15T03:51:28.873Z,-4
2022-12-15T03:52:31.881Z,-4
2022-12-15T03:53:35.043Z,-4
2022-12-15T03:54:37.889Z,-4
2022-12-15T03:55:40.674Z,-4
2022-12-15T03:56:43.678Z,-4
2022-12-15T03:57:46.457Z,-4
2022-12-15T03:58:49.052Z,-4
2022-12-15T03:59:52.106Z,-4
2022-12-15T04:00:54.724Z,-4
2022-12-15T04:01:58.205Z,-4
2022-12-15T04:03:01.865Z,-4
2022-12-15T04:04:06.243Z,-4
2022-12-15T04:05:09.048Z,-4
2022-12-15T04:06:12.253Z,-4
2022-12-15T04:07:15.272Z,-4
2022-12-15T04:08:18.538Z,-4
2022-12-15T04:09:21.584Z,-4
2022-12-15T04:10:34.999Z,-4
2022-12-15T04:11:37.638Z,-4
2022-12-15T04:12:40.134Z,-4
2022-12-15T04:13:42.555Z,-4
2022-12-15T04:14:45.057Z,-4
2022-12-15T04:15:51.311Z,-4
2022-12-15T04:16:54.590Z,-4
2022-12-15T04:17:57.595Z,-4
2022-12-15T04:19:00.674Z,-4.1
2022-12-15T04:20:03.457Z,-4.1
2022-12-15T04:21:06.822Z,-4.1
2022-12-15T04:22:18.734Z,-4.1
2022-12-15T04:23:22.478Z,-4.1
2022-12-15T04:24:25.563Z,-4.1
2022-12-15T04:25:28.438Z,-4.1
2022-12-15T04:26:31.013Z,-4.1
2022-12-15T04:27:33.783Z,-4.1
2022-12-15T04:28:36.547Z,-4.1
2022-12-15T04:29:39.346Z,-4.1
2022-12-15T04:30:42.867Z,-4.1
2022-12-15T04:31:46.068Z,-4.1
2022-12-15T04:32:50.571Z,-4.2
2022-12-15T04:33:52.997Z,-4.2
2022-12-15T04:34:56.647Z,-4.2
2022-12-15T04:35:59.533Z,-4.2
2022-12-15T04:37:02.509Z,-4.2
2022-12-15T04:38:05.429Z,-4.2
2022-12-15T04:39:09.137Z,-4.2
2022-12-15T04:40:12.181Z,-4.2
2022-12-15T04:41:15.433Z,-4.2
2022-12-15T04:42:18.403Z,-4.3
2022-12-15T04:43:21.831Z,-4.3
2022-12-15T04:44:24.623Z,-4.3
2022-12-15T04:45:27.414Z,-4.3
2022-12-15T04:46:31.024Z,-4.3
2022-12-15T04:47:34.133Z,-4.4
2022-12-15T04:48:36.281Z,-4.4
2022-12-15T04:49:38.779Z,-4.4
2022-12-15T04:50:42.217Z,-4.4
2022-12-15T04:51:45.005Z,-4.4
2022-12-15T04:52:48.161Z,-4.4
2022-12-15T04:53:51.632Z,-4.4
2022-12-15T04:54:55.601Z,-4.4
2022-12-15T04:55:58.381Z,-4.4
2022-12-15T04:57:01.159Z,-4.4
2022-12-15T04:58:03.370Z,-4.4
2022-12-15T04:59:05.304Z,-4.3
2022-12-15T05:00:08.165Z,-4.3
2022-12-15T05:01:11.205Z,-4.4
2022-12-15T05:02:14.815Z,-4.3
2022-12-15T05:03:19.124Z,-4.3
2022-12-15T05:04:22.203Z,-4.3
2022-12-15T05:05:26.020Z,-4.4
2022-12-15T05:06:27.884Z,-4.4
2022-12-15T05:07:31.218Z,-4.4
2022-12-15T05:08:33.709Z,-4.4
2022-12-15T05:09:37.472Z,-4.4
2022-12-15T05:10:40.885Z,-4.4
2022-12-15T05:11:43.932Z,-4.4
2022-12-15T05:12:47.636Z,-4.4
2022-12-15T05:13:50.680Z,-4.4
2022-12-15T05:14:52.899Z,-4.4
2022-12-15T05:15:56.240Z,-4.4
2022-12-15T05:16:59.709Z,-4.4
2022-12-15T05:18:02.667Z,-4.4
2022-12-15T05:19:05.087Z,-4.4
2022-12-15T05:20:07.785Z,-4.4
2022-12-15T05:21:10.872Z,-4.3
2022-12-15T05:22:14.517Z,-4.3
2022-12-15T05:23:17.609Z,-4.3
2022-12-15T05:24:20.749Z,-4.4
2022-12-15T05:25:23.890Z,-4.4
2022-12-15T05:26:27.680Z,-4.4
2022-12-15T05:27:30.095Z,-4.4
2022-12-15T05:28:32.599Z,-4.3
2022-12-15T05:29:36.042Z,-4.3
2022-12-15T05:30:38.940Z,-4.4
2022-12-15T05:31:42.249Z,-4.4
2022-12-15T05:32:45.222Z,-4.4
2022-12-15T05:33:52.301Z,-4.3
2022-12-15T05:34:54.871Z,-4.3
2022-12-15T05:35:58.125Z,-4.3
2022-12-15T05:37:01.175Z,-4.3
2022-12-15T05:38:04.007Z,-4.3
2022-12-15T05:39:06.144Z,-4.3
2022-12-15T05:40:09.200Z,-4.3
2022-12-15T05:41:12.405Z,-4.3
2022-12-15T05:42:16.216Z,-4.3
2022-12-15T05:43:27.210Z,-4.3
2022-12-15T05:44:33.027Z,-4.3
2022-12-15T05:45:36.291Z,-4.3
2022-12-15T05:46:38.897Z,-4.3
2022-12-15T05:47:42.470Z,-4.3
2022-12-15T05:48:45.508Z,-4.2
2022-12-15T05:49:48.824Z,-4.3
2022-12-15T05:50:51.872Z,-4.3
2022-12-15T05:51:55.133Z,-4.3
2022-12-15T05:52:57.760Z,-4.3
2022-12-15T05:54:00.735Z,-4.2
2022-12-15T05:55:03.725Z,-4.3
2022-12-15T05:56:06.499Z,-4.3
2022-12-15T05:57:10.274Z,-4.2
2022-12-15T05:58:14.119Z,-4.2
2022-12-15T05:59:16.897Z,-4.2
2022-12-15T06:00:19.669Z,-4.2
2022-12-15T06:01:22.314Z,-4.2
2022-12-15T06:02:25.436Z,-4.2
2022-12-15T06:03:30.292Z,-4.2
2022-12-15T06:04:35.380Z,-4.2
2022-12-15T06:05:38.859Z,-4.2
2022-12-15T06:06:42.307Z,-4.2
2022-12-15T06:07:44.617Z,-4.2
2022-12-15T06:08:50.856Z,-4.2
2022-12-15T06:09:53.563Z,-4.2
2022-12-15T06:10:57.618Z,-4.2
2022-12-15T06:12:00.482Z,-4.2
2022-12-15T06:13:03.609Z,-4.2
2022-12-15T06:14:07.310Z,-4.1
2022-12-15T06:15:10.055Z,-4.1
2022-12-15T06:16:14.041Z,-4.1
2022-12-15T06:17:17.107Z,-4.1
2022-12-15T06:18:19.569Z,-4.1
2022-12-15T06:19:22.342Z,-4.1
2022-12-15T06:20:25.749Z,-4.1
2022-12-15T06:21:28.905Z,-4.1
2022-12-15T06:22:31.427Z,-4.1
2022-12-15T06:23:35.333Z,-4.1
2022-12-15T06:24:38.112Z,-4.1
2022-12-15T06:25:40.886Z,-4.1
2022-12-15T06:26:43.590Z,-4.1
2022-12-15T06:27:46.640Z,-4.1
2022-12-15T06:28:50.772Z,-4.1
2022-12-15T06:29:54.183Z,-4.1
2022-12-15T06:30:57.363Z,-4.1
2022-12-15T06:32:00.595Z,-4.1
2022-12-15T06:33:04.102Z,-4.1
2022-12-15T06:34:07.461Z,-4.1
2022-12-15T06:35:10.588Z,-4.1
2022-12-15T06:36:13.577Z,-4.1
2022-12-15T06:37:16.354Z,-4.1
2022-12-15T06:38:18.794Z,-4.1
2022-12-15T06:39:21.840Z,-4.1
2022-12-15T06:40:24.540Z,-4.1
2022-12-15T06:41:27.242Z,-4.1
2022-12-15T06:42:29.760Z,-4.1
2022-12-15T06:43:34.435Z,-4.1
2022-12-15T06:44:38.420Z,-4.1
2022-12-15T06:45:42.253Z,-4.1
2022-12-15T06:46:51.602Z,-4.1
2022-12-15T06:48:02.451Z,-4.1
2022-12-15T06:49:05.790Z,-4.1
2022-12-15T06:50:08.207Z,-4.1
2022-12-15T06:51:17.944Z,-4.2
2022-12-15T06:52:20.357Z,-4.2
2022-12-15T06:53:23.720Z,-4.2
2022-12-15T06:54:26.493Z,-4.2
2022-12-15T06:55:29.569Z,-4.2
2022-12-15T06:56:35.464Z,-4.2
2022-12-15T06:57:38.824Z,-4.2
2022-12-15T06:58:41.947Z,-4.2
2022-12-15T06:59:45.421Z,-4.3
2022-12-15T07:00:48.909Z,-4.3
2022-12-15T07:01:52.332Z,-4.3
2022-12-15T07:02:56.122Z,-4.3
2022-12-15T07:04:00.997Z,-4.3
2022-12-15T07:05:06.189Z,-4.3
2022-12-15T07:06:08.634Z,-4.3
2022-12-15T07:07:11.753Z,-4.3
2022-12-15T07:08:14.895Z,-4.3
2022-12-15T07:09:17.709Z,-4.3
2022-12-15T07:10:20.769Z,-4.3
2022-12-15T07:11:23.820Z,-4.3
2022-12-15T07:12:27.479Z,-4.3
2022-12-15T07:13:31.698Z,-4.3
2022-12-15T07:14:36.826Z,-4.3
2022-12-15T07:15:40.249Z,-4.3
2022-12-15T07:16:44.733Z,-4.3
2022-12-15T07:17:47.883Z,-4.3
2022-12-15T07:18:50.854Z,-4.3
2022-12-15T07:19:53.646Z,-4.3
2022-12-15T07:20:55.583Z,-4.3
2022-12-15T07:21:58.567Z,-4.3
2022-12-15T07:23:01.424Z,-4.3
2022-12-15T07:24:05.616Z,-4.3
2022-12-15T07:25:10.957Z,-4.3
2022-12-15T07:26:13.738Z,-4.3
2022-12-15T07:27:16.241Z,-4.3
2022-12-15T07:28:29.180Z,-4.3
2022-12-15T07:29:34.264Z,-4.3
2022-12-15T07:30:39.969Z,-4.3
2022-12-15T07:31:43.790Z,-4.3
2022-12-15T07:32:51.254Z,-4.3
2022-12-15T07:33:53.822Z,-4.3
2022-12-15T07:34:57.423Z,-4.3
2022-12-15T07:35:59.628Z,-4.3
2022-12-15T07:37:03.084Z,-4.3
2022-12-15T07:38:05.934Z,-4.3
2022-12-15T07:39:09.317Z,-4.3
2022-12-15T07:40:12.311Z,-4.3
2022-12-15T07:41:15.286Z,-4.3
2022-12-15T07:42:18.340Z,-4.3
2022-12-15T07:43:21.123Z,-4.3
2022-12-15T07:44:23.991Z,-4.3
2022-12-15T07:45:26.687Z,-4.3
2022-12-15T07:46:30.657Z,-4.3
2022-12-15T07:47:34.910Z,-4.2
2022-12-15T07:48:38.675Z,-4.2
2022-12-15T07:49:42.111Z,-4.2
2022-12-15T07:50:45.194Z,-4.2
2022-12-15T07:51:52.874Z,-4.2
2022-12-15T07:52:56.018Z,-4.2
2022-12-15T07:53:59.080Z,-4.2
2022-12-15T07:55:02.404Z,-4.2
2022-12-15T07:56:10.630Z,-4.1
2022-12-15T07:57:13.172Z,-4.1
2022-12-15T07:58:15.945Z,-4.1
2022-12-15T07:59:19.003Z,-4.1
2022-12-15T08:00:21.987Z,-4.1
2022-12-15T08:01:25.328Z,-4.1
2022-12-15T08:02:29.502Z,-4.1
2022-12-15T08:03:36.512Z,-4
2022-12-15T08:04:43.978Z,-4
2022-12-15T08:05:46.748Z,-4
2022-12-15T08:06:50.187Z,-4
2022-12-15T08:07:53.603Z,-3.9
2022-12-15T08:08:56.763Z,-3.9
2022-12-15T08:09:59.333Z,-3.9
2022-12-15T08:11:03.035Z,-3.8
2022-12-15T08:12:06.173Z,-3.8
2022-12-15T08:13:09.095Z,-3.8
2022-12-15T08:14:19.261Z,-3.8
2022-12-15T08:15:24.302Z,-3.7
2022-12-15T08:16:27.767Z,-3.7
2022-12-15T08:17:31.522Z,-3.7
2022-12-15T08:18:34.575Z,-3.6
2022-12-15T08:19:38.724Z,-3.6
2022-12-15T08:20:42.317Z,-3.6
2022-12-15T08:21:45.095Z,-3.6
2022-12-15T08:22:48.217Z,-3.5
2022-12-15T08:23:51.264Z,-3.5
2022-12-15T08:24:54.733Z,-3.5
2022-12-15T08:25:58.064Z,-3.4
2022-12-15T08:27:00.933Z,-3.3
2022-12-15T08:28:03.713Z,-3.3
2022-12-15T08:29:53.109Z,-3.3
2022-12-15T08:30:56.238Z,-3.2
2022-12-15T08:31:59.589Z,-3.1
2022-12-15T08:33:03.358Z,-3.1
2022-12-15T08:34:06.488Z,-3.1
2022-12-15T08:35:57.300Z,-3
2022-12-15T08:37:01.560Z,-3
2022-12-15T08:38:06.645Z,-2.9
2022-12-15T08:39:09.774Z,-2.9
2022-12-15T08:40:13.504Z,-2.9
2022-12-15T08:41:16.274Z,-2.8
2022-12-15T08:42:18.768Z,-2.8
2022-12-15T08:43:21.912Z,-2.8
2022-12-15T08:44:25.240Z,-2.8
2022-12-15T08:45:28.151Z,-2.7
2022-12-15T08:46:31.205Z,-2.7
2022-12-15T08:47:34.599Z,-2.7
2022-12-15T08:48:37.997Z,-2.6
2022-12-15T08:49:41.412Z,-2.7
2022-12-15T08:50:44.493Z,-2.7
2022-12-15T08:51:51.220Z,-2.6
2022-12-15T08:53:32.679Z,-2.6
2022-12-15T08:54:35.471Z,-2.5
2022-12-15T08:55:38.166Z,-2.5
2022-12-15T08:56:40.868Z,-2.4
2022-12-15T08:57:43.668Z,-2.4
2022-12-15T08:58:47.234Z,-2.4
2022-12-15T08:59:50.420Z,-2.3
2022-12-15T09:00:53.795Z,-2.3
2022-12-15T09:01:57.755Z,-2.3
2022-12-15T09:03:01.271Z,-2.2
2022-12-15T09:04:04.460Z,-2.2
2022-12-15T09:05:07.678Z,-2.2
2022-12-15T09:06:11.382Z,-2.1
2022-12-15T09:07:15.443Z,-2
2022-12-15T09:08:19.099Z,-2
2022-12-15T09:09:22.831Z,-2
2022-12-15T09:10:26.468Z,-1.9
2022-12-15T09:11:29.352Z,-1.9
2022-12-15T09:12:32.782Z,-1.9
2022-12-15T09:13:37.062Z,-1.9
2022-12-15T09:14:39.828Z,-1.8
2022-12-15T09:16:11.532Z,-1.8
2022-12-15T09:17:16.078Z,-1.7
2022-12-15T09:18:19.402Z,-1.7
2022-12-15T09:19:22.461Z,-1.6
2022-12-15T09:20:26.164Z,-1.6
2022-12-15T09:21:29.639Z,-1.5
2022-12-15T09:22:33.376Z,-1.5
2022-12-15T09:23:38.049Z,-1.5
2022-12-15T09:24:41.105Z,-1.5
2022-12-15T09:25:44.148Z,-1.5
2022-12-15T09:26:46.633Z,-1.4
2022-12-15T09:27:49.667Z,-1.4
2022-12-15T09:28:53.085Z,-1.3
2022-12-15T09:29:56.718Z,-1.3
2022-12-15T09:30:59.413Z,-1.2
2022-12-15T09:32:03.587Z,-1.2
2022-12-15T09:33:17.008Z,-1.1
2022-12-15T09:34:20.346Z,-1
2022-12-15T09:35:22.576Z,-1
2022-12-15T09:36:25.827Z,-0.9
2022-12-15T09:37:29.205Z,-0.9
2022-12-15T09:38:33.027Z,-0.8
2022-12-15T09:39:36.816Z,-0.8
2022-12-15T09:40:39.693Z,-0.7
2022-12-15T09:41:42.743Z,-0.7
2022-12-15T09:43:32.663Z,-0.6
2022-12-15T09:44:51.567Z,-0.6
2022-12-15T09:45:55.830Z,-0.4
2022-12-15T09:46:59.303Z,-0.3
2022-12-15T09:48:02.371Z,-0.2
2022-12-15T09:49:05.421Z,-0.1
2022-12-15T09:50:08.679Z,0
2022-12-15T09:51:12.472Z,0.1
2022-12-15T09:52:15.473Z,0.2
2022-12-15T09:53:56.931Z,0.3
2022-12-15T09:55:04.308Z,0.3
2022-12-15T09:56:07.369Z,0.4
2022-12-15T09:57:10.981Z,0.5
2022-12-15T09:58:14.028Z,0.6
2022-12-15T09:59:16.809Z,0.7
2022-12-15T10:00:19.833Z,0.8
2022-12-15T10:01:23.675Z,0.9
2022-12-15T10:02:27.271Z,1
2022-12-15T10:03:33.321Z,1.1
2022-12-15T10:04:38.532Z,1.2
2022-12-15T15:03:24.100Z,1.3
2022-12-15T15:04:29.165Z,1.4
2022-12-15T15:05:31.838Z,2
2022-12-15T15:06:35.602Z,1.9
2022-12-15T15:07:38.451Z,1.9
2022-12-15T15:08:41.788Z,1.9
2022-12-15T15:09:44.482Z,1.9
2022-12-15T15:10:48.090Z,2
2022-12-15T15:11:52.289Z,2
2022-12-15T15:12:55.743Z,2
2022-12-15T15:13:58.813Z,2
2022-12-15T15:15:02.298Z,2
2022-12-15T15:16:05.607Z,2
2022-12-15T15:17:08.786Z,2
2022-12-15T15:18:13.181Z,2
2022-12-15T15:19:16.607Z,2
2022-12-15T15:20:20.820Z,2
2022-12-15T15:21:23.519Z,2.1
2022-12-15T15:22:26.811Z,2.1
2022-12-15T15:23:29.509Z,2.1
2022-12-15T15:24:33.499Z,2.1
2022-12-15T15:25:41.668Z,2.1
2022-12-15T15:26:44.789Z,2.1
2022-12-15T15:27:47.732Z,2.1
2022-12-15T15:28:50.716Z,2.1
2022-12-15T15:29:54.075Z,2.1
2022-12-15T15:30:57.752Z,2.1
2022-12-15T15:32:00.743Z,2.1
2022-12-15T15:33:04.093Z,2.1
2022-12-15T15:34:07.538Z,2.1
2022-12-15T15:35:10.763Z,2.2
2022-12-15T15:36:14.984Z,2.2
2022-12-15T15:37:19.349Z,2.1
2022-12-15T15:38:21.834Z,2.2
2022-12-15T15:39:25.198Z,2.2
2022-12-15T15:40:28.327Z,2.2
2022-12-15T15:41:31.025Z,2.2
2022-12-15T15:42:34.736Z,2.2
2022-12-15T15:43:37.313Z,2.2
2022-12-15T15:44:40.751Z,2.2
2022-12-15T15:45:44.112Z,2.2
2022-12-15T15:46:47.157Z,2.3
2022-12-15T15:47:51.402Z,2.3
2022-12-15T15:48:59.845Z,2.3
2022-12-15T15:50:03.574Z,2.3
2022-12-15T15:51:06.426Z,2.3
2022-12-15T15:52:10.447Z,2.3
2022-12-15T15:53:14.053Z,2.3
2022-12-15T15:54:17.453Z,2.3
2022-12-15T15:55:19.865Z,2.3
2022-12-15T15:56:23.267Z,2.3
2022-12-15T15:57:26.252Z,2.3
2022-12-15T15:58:30.433Z,2.3
2022-12-15T15:59:35.852Z,2.3
2022-12-15T16:00:38.999Z,2.3
2022-12-15T16:01:43.410Z,2.3
2022-12-15T16:02:47.509Z,2.3
2022-12-15T16:03:51.160Z,2.3
2022-12-15T16:04:54.506Z,2.3
2022-12-15T16:05:57.937Z,2.2
2022-12-15T16:07:01.308Z,2.2
2022-12-15T16:08:05.126Z,2.2
2022-12-15T16:09:08.917Z,2.2
2022-12-15T16:10:11.907Z,2.2
2022-12-15T16:11:15.234Z,2.2
2022-12-15T16:12:18.936Z,2.2
2022-12-15T16:13:27.224Z,2.2
2022-12-15T16:14:30.899Z,2.2
2022-12-15T16:15:33.975Z,2.2
2022-12-15T16:16:37.064Z,2.2
2022-12-15T16:17:40.641Z,2.2
2022-12-15T16:18:44.045Z,2.2
2022-12-15T16:19:46.739Z,2.2
2022-12-15T16:20:49.718Z,2.3
2022-12-15T16:21:52.386Z,2.3
2022-12-15T16:22:55.381Z,2.3
2022-12-15T16:23:59.715Z,2.3
2022-12-15T16:25:02.606Z,2.3
2022-12-15T16:26:05.534Z,2.3
2022-12-15T16:27:08.585Z,2.3
2022-12-15T16:28:11.913Z,2.3
2022-12-15T16:29:14.406Z,2.3
2022-12-15T16:30:17.975Z,2.3
2022-12-15T16:31:21.362Z,2.3
2022-12-15T16:32:25.377Z,2.3
2022-12-15T16:33:28.383Z,2.3
2022-12-15T16:34:31.473Z,2.3
2022-12-15T16:35:34.803Z,2.3
2022-12-15T16:36:37.608Z,2.3
2022-12-15T16:37:40.924Z,2.3
2022-12-15T16:38:43.647Z,2.3
2022-12-15T16:39:47.761Z,2.3
2022-12-15T16:40:50.730Z,2.3
2022-12-15T16:41:57.951Z,2.3
2022-12-15T16:43:01.353Z,2.3
2022-12-15T16:44:03.853Z,2.3
2022-12-15T16:45:06.986Z,2.3
2022-12-15T16:46:10.046Z,2.3
2022-12-15T16:47:13.067Z,2.3
2022-12-15T16:48:16.773Z,2.4
2022-12-15T16:49:20.706Z,2.3
2022-12-15T16:50:23.963Z,2.4
2022-12-15T16:51:26.258Z,2.3
2022-12-15T16:52:29.342Z,2.4
2022-12-15T16:53:32.625Z,2.4
2022-12-15T16:54:35.450Z,2.4
2022-12-15T16:55:41.271Z,2.4
2022-12-15T16:56:43.963Z,2.4
2022-12-15T16:57:47.040Z,2.4
2022-12-15T16:59:33.724Z,2.4
2022-12-15T17:00:39.390Z,2.4
2022-12-15T17:01:42.962Z,2.4
2022-12-15T17:02:47.118Z,2.4
2022-12-15T17:03:51.546Z,2.4
2022-12-15T17:04:55.147Z,2.4
2022-12-15T17:05:58.450Z,2.4
2022-12-15T17:07:01.967Z,2.4
2022-12-15T17:08:04.461Z,2.4
2022-12-15T17:09:07.873Z,2.4
2022-12-15T17:10:10.974Z,2.5
2022-12-15T17:11:15.061Z,2.5
2022-12-15T17:12:17.838Z,2.5
2022-12-15T17:13:20.841Z,2.5
2022-12-15T17:14:23.618Z,2.5
2022-12-15T17:15:27.262Z,2.5
2022-12-15T17:16:30.967Z,2.5
2022-12-15T17:17:34.623Z,2.5
2022-12-15T17:18:38.658Z,2.5
2022-12-15T17:20:30.204Z,2.6
2022-12-15T17:21:35.502Z,2.6
2022-12-15T17:22:38.751Z,2.6
2022-12-15T17:23:42.207Z,2.6
2022-12-15T17:24:45.157Z,2.6
2022-12-15T17:26:30.030Z,2.6
2022-12-15T17:27:34.842Z,2.6
2022-12-15T17:28:38.269Z,2.6
2022-12-15T17:29:41.720Z,2.6
2022-12-15T17:30:44.823Z,2.6
2022-12-15T17:31:48.408Z,2.6
2022-12-15T17:32:51.472Z,2.7
2022-12-15T17:33:54.174Z,2.6
2022-12-15T17:34:56.953Z,2.6
2022-12-15T17:36:00.031Z,2.6
2022-12-15T17:37:02.797Z,2.6
2022-12-15T17:38:05.865Z,2.6
2022-12-15T17:39:10.510Z,2.6
2022-12-15T17:40:13.903Z,2.6
2022-12-15T17:42:01.966Z,2.6
2022-12-15T17:43:06.920Z,2.6
2022-12-15T17:44:38.117Z,2.6
2022-12-15T17:45:42.207Z,2.6
2022-12-15T17:46:46.001Z,2.6
2022-12-15T17:47:49.123Z,2.6
2022-12-15T17:48:52.476Z,2.6
2022-12-15T17:49:55.811Z,2.6
2022-12-15T17:50:59.217Z,2.6
2022-12-15T17:52:02.291Z,2.6
2022-12-15T17:53:05.669Z,2.6
2022-12-15T17:54:08.472Z,2.6
2022-12-15T17:55:11.334Z,2.6
2022-12-15T17:56:13.953Z,2.6
2022-12-15T17:57:16.126Z,2.6
2022-12-15T17:58:19.990Z,2.6
2022-12-15T17:59:23.064Z,2.6
2022-12-15T18:00:26.110Z,2.6
2022-12-15T18:01:29.250Z,2.6
2022-12-15T18:02:33.392Z,2.6
2022-12-15T18:03:38.959Z,2.6
2022-12-15T18:04:42.974Z,2.6
2022-12-15T18:05:46.316Z,2.6
2022-12-15T18:06:49.009Z,2.6
2022-12-15T18:07:52.065Z,2.6
2022-12-15T18:08:55.673Z,2.6
2022-12-15T18:09:57.893Z,2.6
2022-12-15T18:11:00.338Z,2.6
2022-12-15T18:12:03.687Z,2.6
2022-12-15T18:13:06.395Z,2.6
2022-12-15T18:14:10.632Z,2.6
2022-12-15T18:15:13.333Z,2.6
2022-12-15T18:16:16.132Z,2.6
2022-12-15T18:17:19.936Z,2.6
2022-12-15T18:18:23.037Z,2.6
2022-12-15T18:19:35.521Z,2.6
2022-12-15T18:20:38.579Z,2.6
2022-12-15T18:21:42.284Z,2.6
2022-12-15T18:22:45.374Z,2.6
2022-12-15T18:23:47.648Z,2.6
2022-12-15T18:24:50.788Z,2.6
2022-12-15T18:26:03.460Z,2.6
2022-12-15T18:27:07.134Z,2.6
2022-12-15T18:28:09.732Z,2.6
2022-12-15T18:29:13.862Z,2.6
2022-12-15T18:30:16.659Z,2.6
2022-12-15T18:31:19.692Z,2.6
2022-12-15T18:32:23.023Z,2.6
2022-12-15T18:33:25.598Z,2.6
2022-12-15T18:34:29.247Z,2.6
2022-12-15T18:35:31.467Z,2.6
2022-12-15T18:36:34.355Z,2.6
2022-12-15T18:37:37.506Z,2.6
2022-12-15T18:38:40.940Z,2.6
2022-12-15T18:39:43.639Z,2.6
2022-12-15T18:40:47.122Z,2.6
2022-12-15T18:41:49.986Z,2.6
2022-12-15T18:42:53.149Z,2.6
2022-12-15T18:43:55.669Z,2.6
2022-12-15T18:44:59.585Z,2.6
2022-12-15T18:46:02.282Z,2.7
2022-12-15T18:47:05.700Z,2.6
2022-12-15T18:48:10.677Z,2.7
2022-12-15T18:49:13.466Z,2.7
2022-12-15T18:50:17.202Z,2.7
2022-12-15T18:51:20.353Z,2.7
2022-12-15T18:52:24.136Z,2.7
2022-12-15T18:53:37.017Z,2.7
2022-12-15T18:54:40.071Z,2.7
2022-12-15T18:55:43.403Z,2.7
2022-12-15T18:56:45.486Z,2.7
2022-12-15T18:57:48.265Z,2.7
2022-12-15T18:58:51.169Z,2.7
2022-12-15T18:59:54.170Z,2.7
2022-12-15T19:00:58.492Z,2.7
2022-12-15T19:02:01.993Z,2.7
2022-12-15T19:03:05.906Z,2.7
2022-12-15T19:04:10.347Z,2.7
2022-12-15T19:05:13.323Z,2.7
2022-12-15T19:06:15.741Z,2.7
2022-12-15T19:07:20.461Z,2.7
2022-12-15T19:08:22.598Z,2.8
2022-12-15T19:09:25.370Z,2.8
2022-12-15T19:10:28.347Z,2.8
2022-12-15T19:11:31.573Z,2.8
2022-12-15T19:12:35.189Z,2.8
2022-12-15T19:13:38.245Z,2.8
2022-12-15T19:14:40.842Z,2.8
2022-12-15T19:15:44.690Z,2.8
2022-12-15T19:16:48.883Z,2.8
2022-12-15T19:17:51.932Z,2.7
2022-12-15T19:18:54.149Z,2.7
2022-12-15T19:19:56.641Z,2.8
2022-12-15T19:20:59.143Z,2.8
2022-12-15T19:22:01.841Z,2.8
2022-12-15T19:23:04.619Z,2.7
2022-12-15T19:24:07.615Z,2.8
2022-12-15T19:25:10.403Z,2.8
2022-12-15T19:26:13.189Z,2.8